createdAt,value
2022-10-18T00:00:17.336Z,6.68
2022-10-18T00:03:20.329Z,6.67
2022-10-18T00:06:22.506Z,6.87
2022-10-18T00:09:25.094Z,7.00
2022-10-18T00:12:27.175Z,7.72
2022-10-18T00:15:29.138Z,7.50
2022-10-18T00:18:31.527Z,7.10
2022-10-18T00:21:33.645Z,6.55
2022-10-18T00:24:35.740Z,7.10
2022-10-18T00:27:37.844Z,7.62
2022-10-18T00:30:39.929Z,6.70
2022-10-18T00:33:43.261Z,6.60
2022-10-18T00:36:45.570Z,6.43
2022-10-18T00:39:47.563Z,6.30
2022-10-18T00:42:49.570Z,6.22
2022-10-18T00:45:51.630Z,6.62
2022-10-18T00:48:56.598Z,7.13
2022-10-18T00:52:09.254Z,6.72
2022-10-18T00:55:11.735Z,7.20
2022-10-18T00:58:16.654Z,6.68
2022-10-18T01:01:18.708Z,6.68
2022-10-18T01:04:21.746Z,6.10
2022-10-18T01:07:26.834Z,6.37
2022-10-18T01:10:56.785Z,6.80
2022-10-18T01:14:36.122Z,6.18
2022-10-18T01:18:14.123Z,6.47
2022-10-18T01:21:24.859Z,6.10
2022-10-18T01:24:45.530Z,5.90
2022-10-18T01:27:59.260Z,6.15
2022-10-18T01:31:10.187Z,6.15
2022-10-18T01:34:16.945Z,6.28
2022-10-18T01:37:21.544Z,6.50
2022-10-18T01:40:25.493Z,6.18
2022-10-18T01:43:29.873Z,6.32
2022-10-18T01:46:33.483Z,6.45
2022-10-18T01:49:35.735Z,7.12
2022-10-18T01:52:51.553Z,6.27
2022-10-18T01:56:18.247Z,6.10
2022-10-18T01:59:38.933Z,6.25
2022-10-18T02:02:48.616Z,6.45
2022-10-18T02:05:59.302Z,6.32
2022-10-18T02:09:11.193Z,5.80
2022-10-18T02:12:15.517Z,6.43
2022-10-18T02:15:22.526Z,6.85
2022-10-18T02:18:33.124Z,6.40
2022-10-18T02:21:36.099Z,6.62
2022-10-18T02:24:43.039Z,6.77
2022-10-18T02:27:45.157Z,6.62
2022-10-18T02:31:05.714Z,6.87
2022-10-18T02:34:16.894Z,7.32
2022-10-18T02:37:20.677Z,7.55
2022-10-18T02:40:25.976Z,7.63
2022-10-18T02:43:27.986Z,7.35
2022-10-18T02:46:30.030Z,7.78
2022-10-18T02:49:32.372Z,7.30
2022-10-18T02:52:34.431Z,7.85
2022-10-18T02:55:36.388Z,7.63
2022-10-18T02:58:38.423Z,7.53
2022-10-18T03:01:40.813Z,7.80
2022-10-18T03:04:42.925Z,7.25
2022-10-18T03:07:48.504Z,8.48
2022-10-18T03:10:50.689Z,7.80
2022-10-18T03:13:52.695Z,7.35
2022-10-18T03:16:54.679Z,7.82
2022-10-18T03:19:56.682Z,7.50
2022-10-18T03:22:58.602Z,8.05
2022-10-18T03:26:00.713Z,7.93
2022-10-18T03:29:02.959Z,7.62
2022-10-18T03:32:05.301Z,8.13
2022-10-18T03:35:09.278Z,8.18
2022-10-18T03:38:11.418Z,8.57
2022-10-18T03:41:13.573Z,7.30
2022-10-18T03:44:15.489Z,7.55
2022-10-18T03:47:17.559Z,7.50
2022-10-18T03:50:20.062Z,8.15
2022-10-18T03:53:22.095Z,7.55
2022-10-18T03:56:24.055Z,7.40
2022-10-18T03:59:26.124Z,7.90
2022-10-18T04:02:28.073Z,7.70
2022-10-18T04:05:31.399Z,7.80
2022-10-18T04:08:33.458Z,7.97
2022-10-18T04:11:35.436Z,8.27
2022-10-18T04:14:37.429Z,8.05
2022-10-18T04:17:39.473Z,8.30
2022-10-18T04:20:41.609Z,8.55
2022-10-18T04:23:43.550Z,8.30
2022-10-18T04:26:45.878Z,7.80
2022-10-18T04:29:47.792Z,7.87
2022-10-18T04:32:49.836Z,7.70
2022-10-18T04:35:53.489Z,8.20
2022-10-18T04:38:55.543Z,8.10
2022-10-18T04:41:57.570Z,8.10
2022-10-18T04:44:59.516Z,8.27
2022-10-18T04:48:01.639Z,8.65
2022-10-18T04:51:03.820Z,7.93
2022-10-18T04:54:05.881Z,8.68
2022-10-18T04:57:07.861Z,9.50
2022-10-18T05:00:10.220Z,8.55
2022-10-18T05:03:14.001Z,8.23
2022-10-18T05:06:16.026Z,8.23
2022-10-18T05:09:18.024Z,8.85
2022-10-18T05:12:20.152Z,8.73
2022-10-18T05:15:22.201Z,8.52
2022-10-18T05:18:24.183Z,8.45
2022-10-18T05:21:26.198Z,8.90
2022-10-18T05:24:28.272Z,8.95
2022-10-18T05:27:30.357Z,9.40
2022-10-18T05:30:32.407Z,9.80
2022-10-18T05:33:34.471Z,9.63
2022-10-18T05:36:36.546Z,9.60
2022-10-18T05:39:39.036Z,10.00
2022-10-18T05:42:40.992Z,9.03
2022-10-18T05:45:48.112Z,9.23
2022-10-18T05:48:51.459Z,9.65
2022-10-18T05:51:53.707Z,9.57
2022-10-18T05:54:55.720Z,10.70
2022-10-18T05:57:57.652Z,10.37
2022-10-18T06:01:04.194Z,10.15
2022-10-18T06:04:06.461Z,10.27
2022-10-18T06:07:10.141Z,9.98
2022-10-18T06:10:17.688Z,10.40
2022-10-18T06:13:19.633Z,10.67
2022-10-18T06:16:22.882Z,10.00
2022-10-18T06:19:24.910Z,13.40
2022-10-18T06:22:26.979Z,10.35
2022-10-18T06:25:28.964Z,92.10
2022-10-18T06:28:31.161Z,21.70
2022-10-18T06:31:33.199Z,14.13
2022-10-18T06:34:35.344Z,11.48
2022-10-18T06:37:38.321Z,11.30
2022-10-18T06:40:42.172Z,11.57
2022-10-18T06:43:53.117Z,11.43
2022-10-18T06:46:55.106Z,10.75
2022-10-18T06:49:57.051Z,11.07
2022-10-18T06:52:59.007Z,11.23
2022-10-18T06:56:02.849Z,10.65
2022-10-18T06:59:05.386Z,9.30
2022-10-18T07:02:07.598Z,8.88
2022-10-18T07:05:11.255Z,9.43
2022-10-18T07:08:13.203Z,9.48
2022-10-18T07:11:25.215Z,11.82
2022-10-18T07:14:29.193Z,14.77
2022-10-18T07:17:31.546Z,11.52
2022-10-18T07:20:34.047Z,11.35
2022-10-18T07:23:38.281Z,9.93
2022-10-18T07:26:40.208Z,9.85
2022-10-18T07:29:42.246Z,10.67
2022-10-18T07:32:44.215Z,10.48
2022-10-18T07:35:46.344Z,9.82
2022-10-18T07:38:49.420Z,9.65
2022-10-18T07:41:51.517Z,10.27
2022-10-18T07:44:53.458Z,9.57
2022-10-18T07:47:56.673Z,9.93
2022-10-18T07:51:00.988Z,10.15
2022-10-18T07:54:03.170Z,10.07
2022-10-18T07:57:05.494Z,9.70
2022-10-18T08:00:09.158Z,10.10
2022-10-18T08:03:11.357Z,10.93
2022-10-18T08:06:16.511Z,10.50
2022-10-18T08:09:18.508Z,11.00
2022-10-18T08:12:20.447Z,11.43
2022-10-18T08:15:25.057Z,12.90
2022-10-18T08:18:26.990Z,13.70
2022-10-18T08:21:28.951Z,15.98
2022-10-18T08:24:31.041Z,16.02
2022-10-18T08:27:33.188Z,15.25
2022-10-18T08:30:36.749Z,14.23
2022-10-18T08:33:39.933Z,17.33
2022-10-18T08:36:41.825Z,17.50
2022-10-18T08:39:43.798Z,17.33
2022-10-18T08:42:52.766Z,16.83
2022-10-18T08:45:55.226Z,16.33
2022-10-18T08:48:57.410Z,16.00
2022-10-18T08:51:59.494Z,15.25
2022-10-18T08:55:10.606Z,12.02
2022-10-18T08:58:17.906Z,12.15
2022-10-18T09:01:26.081Z,11.60
2022-10-18T09:04:40.242Z,10.75
2022-10-18T09:07:47.980Z,11.43
2022-10-18T09:10:49.926Z,12.10
2022-10-18T09:14:37.597Z,12.18
2022-10-18T09:17:57.575Z,11.87
2022-10-18T09:21:06.577Z,11.43
2022-10-18T09:24:25.653Z,11.63
2022-10-18T09:27:59.889Z,12.18
2022-10-18T09:31:05.048Z,11.25
2022-10-18T09:34:24.898Z,10.53
2022-10-18T09:37:30.843Z,11.05
2022-10-18T09:40:37.803Z,11.60
2022-10-18T09:43:51.041Z,10.45
2022-10-18T09:47:00.622Z,11.18
2022-10-18T09:50:13.819Z,10.63
2022-10-18T09:53:37.069Z,11.23
2022-10-18T09:56:50.221Z,10.80
2022-10-18T09:59:52.585Z,10.65
2022-10-18T10:02:54.745Z,10.98
2022-10-18T10:06:25.342Z,11.03
2022-10-18T10:09:37.185Z,10.38
2022-10-18T10:12:41.088Z,11.20
2022-10-18T10:15:52.168Z,10.52
2022-10-18T10:18:54.666Z,10.93
2022-10-18T10:22:05.317Z,10.07
2022-10-18T10:25:19.357Z,10.20
2022-10-18T10:28:30.564Z,10.88
2022-10-18T10:31:34.430Z,10.07
2022-10-18T10:34:37.308Z,9.93
2022-10-18T10:37:40.814Z,9.93
2022-10-18T10:40:50.468Z,10.05
2022-10-18T10:43:52.789Z,9.93
2022-10-18T10:46:55.444Z,10.88
2022-10-18T10:49:57.714Z,9.95
2022-10-18T10:52:59.957Z,10.00
2022-10-18T10:56:03.249Z,10.68
2022-10-18T10:59:08.611Z,9.80
2022-10-18T11:02:20.709Z,9.75
2022-10-18T11:05:27.179Z,11.15
2022-10-18T11:08:38.948Z,10.37
2022-10-18T11:11:50.020Z,10.43
2022-10-18T11:15:14.275Z,10.45
2022-10-18T11:18:30.291Z,10.38
2022-10-18T11:21:33.193Z,10.98
2022-10-18T11:24:36.665Z,11.03
2022-10-18T11:27:49.378Z,11.15
2022-10-18T11:31:29.725Z,10.98
2022-10-18T11:35:20.227Z,11.10
2022-10-18T11:38:53.492Z,11.55
2022-10-18T11:42:39.162Z,12.40
2022-10-18T11:46:03.509Z,11.80
2022-10-18T11:49:43.264Z,12.40
2022-10-18T11:53:03.786Z,11.57
2022-10-18T11:56:27.189Z,10.50
2022-10-18T11:59:46.038Z,10.80
2022-10-18T12:02:56.320Z,11.20
2022-10-18T12:06:03.805Z,11.02
2022-10-18T12:09:32.728Z,11.68
2022-10-18T12:12:42.074Z,11.12
2022-10-18T12:15:45.279Z,10.87
2022-10-18T12:18:57.889Z,10.60
2022-10-18T12:22:21.432Z,10.50
2022-10-18T12:25:23.804Z,10.50
2022-10-18T12:28:28.919Z,10.70
2022-10-18T12:31:45.781Z,10.57
2022-10-18T12:34:55.133Z,10.68
2022-10-18T12:38:23.971Z,10.77
2022-10-18T12:41:30.376Z,10.90
2022-10-18T12:44:34.712Z,11.07
2022-10-18T12:47:36.896Z,10.60
2022-10-18T12:50:42.275Z,10.70
2022-10-18T12:53:54.837Z,10.48
2022-10-18T12:56:58.074Z,10.93
2022-10-18T13:00:00.199Z,11.27
2022-10-18T13:03:16.640Z,10.90
2022-10-18T13:06:18.775Z,11.50
2022-10-18T13:09:21.830Z,10.70
2022-10-18T13:12:23.741Z,10.27
2022-10-18T13:15:52.976Z,10.77
2022-10-18T13:18:57.779Z,11.00
2022-10-18T13:22:41.471Z,10.43
2022-10-18T13:26:05.425Z,10.27
2022-10-18T13:29:33.946Z,10.10
2022-10-18T13:32:50.761Z,10.35
2022-10-18T13:36:05.492Z,11.00
2022-10-18T13:39:20.922Z,10.57
2022-10-18T13:42:32.364Z,11.32
2022-10-18T13:45:35.319Z,10.38
2022-10-18T13:48:37.366Z,10.93
2022-10-18T13:52:07.072Z,11.30
2022-10-18T13:55:26.295Z,10.98
2022-10-18T13:59:05.861Z,10.60
2022-10-18T14:02:51.702Z,11.07
2022-10-18T14:06:01.804Z,11.25
2022-10-18T14:09:26.307Z,10.73
2022-10-18T14:12:44.382Z,10.05
2022-10-18T14:15:51.763Z,10.70
2022-10-18T14:19:01.601Z,10.48
2022-10-18T14:22:13.098Z,10.98
2022-10-18T14:25:37.170Z,10.63
2022-10-18T14:28:58.472Z,10.07
2022-10-18T14:32:01.176Z,10.80
2022-10-18T14:35:31.180Z,10.38
2022-10-18T14:38:25.650Z,10.30
2022-10-18T14:41:38.581Z,10.17
2022-10-18T14:44:40.659Z,9.73
2022-10-18T14:47:45.799Z,10.05
2022-10-18T14:50:59.307Z,10.68
2022-10-18T14:54:01.837Z,10.40
2022-10-18T14:57:05.973Z,11.00
2022-10-18T15:00:09.773Z,10.43
2022-10-18T15:03:15.901Z,11.48
2022-10-18T15:06:19.742Z,10.93
2022-10-18T15:09:24.184Z,11.32
2022-10-18T15:12:33.908Z,12.90
2022-10-18T15:15:48.026Z,11.73
2022-10-18T15:19:03.163Z,11.85
2022-10-18T15:25:32.930Z,11.77
2022-10-18T15:28:40.125Z,11.97
2022-10-18T15:31:44.501Z,12.23
2022-10-18T15:34:46.905Z,11.93
2022-10-18T15:37:49.009Z,12.10
2022-10-18T15:40:52.054Z,13.23
2022-10-18T15:44:10.104Z,12.40
2022-10-18T15:47:21.114Z,13.48
2022-10-18T15:50:50.583Z,13.93
2022-10-18T15:53:54.476Z,12.93
2022-10-18T15:56:57.042Z,13.65
2022-10-18T16:00:05.025Z,14.20
2022-10-18T16:03:09.329Z,14.07
2022-10-18T16:06:15.887Z,14.10
2022-10-18T16:09:22.651Z,14.48
2022-10-18T16:12:24.590Z,15.13
2022-10-18T16:15:26.617Z,15.37
2022-10-18T16:18:28.627Z,16.23
2022-10-18T16:21:38.190Z,19.12
2022-10-18T16:24:40.656Z,17.12
2022-10-18T16:27:42.606Z,16.12
2022-10-18T16:30:50.510Z,17.50
2022-10-18T16:33:54.118Z,17.23
2022-10-18T16:36:56.140Z,19.50
2022-10-18T16:39:58.086Z,19.52
2022-10-18T16:43:00.094Z,21.37
2022-10-18T16:46:03.090Z,22.60
2022-10-18T16:49:06.491Z,24.80
2022-10-18T16:52:08.742Z,22.10
2022-10-18T16:55:17.199Z,22.95
2022-10-18T16:58:19.254Z,21.42
2022-10-18T17:01:23.747Z,21.70
2022-10-18T17:04:25.759Z,21.70
2022-10-18T17:07:27.730Z,23.90
2022-10-18T17:10:30.499Z,22.20
2022-10-18T17:13:32.469Z,21.77
2022-10-18T17:16:37.586Z,32.87
2022-10-18T17:19:39.651Z,28.00
2022-10-18T17:22:41.734Z,24.42
2022-10-18T17:25:57.571Z,25.00
2022-10-18T17:29:08.720Z,25.83
2022-10-18T17:32:11.173Z,24.67
2022-10-18T17:35:13.746Z,24.05
2022-10-18T17:38:16.396Z,25.70
2022-10-18T17:41:18.642Z,24.23
2022-10-18T17:44:21.581Z,25.52
2022-10-18T17:47:24.203Z,25.77
2022-10-18T17:50:35.980Z,25.92
2022-10-18T17:53:39.269Z,25.77
2022-10-18T17:56:42.213Z,25.12
2022-10-18T17:59:45.224Z,25.10
2022-10-18T18:02:48.049Z,24.60
2022-10-18T18:05:53.798Z,24.50
2022-10-18T18:08:57.804Z,25.30
2022-10-18T18:12:00.203Z,24.23
2022-10-18T18:15:02.662Z,24.98
2022-10-18T18:18:05.615Z,24.10
2022-10-18T18:21:09.486Z,23.45
2022-10-18T18:24:14.525Z,23.55
2022-10-18T18:27:17.375Z,26.12
2022-10-18T18:30:22.580Z,25.92
2022-10-18T18:33:25.879Z,25.77
2022-10-18T18:36:29.652Z,25.33
2022-10-18T18:39:35.811Z,25.62
2022-10-18T18:42:38.505Z,25.37
2022-10-18T18:45:41.199Z,27.27
2022-10-18T18:48:44.165Z,25.80
2022-10-18T18:51:48.885Z,25.92
2022-10-18T18:54:51.708Z,26.17
2022-10-18T18:57:54.551Z,25.33
2022-10-18T19:00:57.793Z,27.57
2022-10-18T19:04:01.573Z,26.77
2022-10-18T19:07:04.327Z,25.08
2022-10-18T19:10:07.490Z,24.45
2022-10-18T19:13:11.112Z,25.08
2022-10-18T19:16:20.327Z,25.30
2022-10-18T19:19:24.753Z,24.40
2022-10-18T19:22:27.570Z,25.52
2022-10-18T19:25:29.994Z,25.52
2022-10-18T19:28:32.861Z,25.58
2022-10-18T19:31:36.490Z,24.50
2022-10-18T19:34:39.938Z,26.00
2022-10-18T19:37:42.717Z,25.77
2022-10-18T19:41:04.756Z,25.65
2022-10-18T19:44:07.598Z,28.38
2022-10-18T19:47:14.720Z,28.10
2022-10-18T19:50:18.008Z,29.53
2022-10-18T19:53:21.016Z,26.55
2022-10-18T19:56:26.097Z,27.70
2022-10-18T19:59:29.426Z,27.87
2022-10-18T20:02:32.310Z,34.73
2022-10-18T20:05:34.687Z,36.63
2022-10-18T20:08:37.846Z,33.80
2022-10-18T20:11:40.319Z,34.22
2022-10-18T20:14:42.396Z,28.38
2022-10-18T20:17:44.427Z,27.50
2022-10-18T20:20:48.403Z,25.13
2022-10-18T20:23:50.372Z,24.12
2022-10-18T20:29:55.184Z,25.45
2022-10-18T20:32:57.218Z,27.47
2022-10-18T20:36:08.021Z,29.03
2022-10-18T20:39:10.171Z,28.30
2022-10-18T20:42:12.256Z,29.48
2022-10-18T20:45:14.301Z,31.17
2022-10-18T20:48:16.335Z,31.47
2022-10-18T20:51:20.022Z,29.83
2022-10-18T20:54:22.861Z,31.37
2022-10-18T20:57:24.979Z,27.95
2022-10-18T21:00:27.962Z,28.85
2022-10-18T21:03:29.946Z,27.43
2022-10-18T21:06:44.846Z,29.23
2022-10-18T21:09:46.826Z,29.20
2022-10-18T21:12:48.930Z,30.08
2022-10-18T21:15:58.554Z,30.25
2022-10-18T21:19:08.811Z,31.00
2022-10-18T21:22:11.007Z,31.27
2022-10-18T21:25:13.008Z,30.17
2022-10-18T21:28:16.346Z,30.37
2022-10-18T21:31:21.256Z,28.90
2022-10-18T21:34:23.357Z,29.03
2022-10-18T21:37:25.275Z,27.93
2022-10-18T21:40:29.890Z,33.28
2022-10-18T21:43:31.832Z,31.65
2022-10-18T21:46:33.868Z,30.42
2022-10-18T21:49:35.806Z,30.07
2022-10-18T21:52:38.329Z,28.63
2022-10-18T21:55:40.253Z,29.50
2022-10-18T21:58:43.058Z,25.75
2022-10-18T22:01:45.813Z,27.20
2022-10-18T22:04:49.759Z,27.00
2022-10-18T22:07:51.755Z,24.53
2022-10-18T22:10:53.834Z,24.95
2022-10-18T22:13:56.240Z,22.80
2022-10-18T22:16:58.278Z,23.42
2022-10-18T22:20:00.402Z,24.40
2022-10-18T22:23:02.395Z,23.30
2022-10-18T22:26:08.073Z,24.83
2022-10-18T22:29:15.057Z,24.83
2022-10-18T22:32:17.035Z,25.35
2022-10-18T22:35:18.967Z,25.37
2022-10-18T22:38:21.005Z,25.23
2022-10-18T22:41:22.988Z,25.08
2022-10-18T22:44:25.451Z,25.75
2022-10-18T22:47:27.477Z,24.90
2022-10-18T22:50:29.410Z,24.80
2022-10-18T22:53:32.422Z,26.67
2022-10-18T22:56:34.905Z,24.80
2022-10-18T22:59:36.928Z,25.37
2022-10-18T23:02:38.927Z,24.87
2022-10-18T23:05:43.055Z,25.17
2022-10-18T23:08:45.004Z,23.87
2022-10-18T23:11:48.131Z,23.60
2022-10-18T23:14:50.221Z,23.75
2022-10-18T23:17:54.730Z,23.92
2022-10-18T23:21:09.070Z,23.33
2022-10-18T23:24:11.093Z,22.57
2022-10-18T23:27:13.147Z,22.17
2022-10-18T23:30:23.223Z,22.60
2022-10-18T23:33:25.222Z,22.92
2022-10-18T23:36:27.466Z,23.67
2022-10-18T23:39:29.399Z,23.33
2022-10-18T23:42:31.605Z,24.10
2022-10-18T23:45:33.555Z,24.65
2022-10-18T23:48:35.649Z,23.05
2022-10-18T23:51:37.639Z,23.83
2022-10-18T23:54:39.879Z,24.03
2022-10-18T23:57:41.843Z,23.42
